Time;durP1;ratioP1;P1;durP2;ratioP2;P2;SDS_P1;SDS_P2;PMS_P1;PMS_P2;Temp;Humidity;BMP_temperature;BMP_pressure;BME280_temperature;BME280_humidity;BME280_pressure;Samples;Min_cycle;Max_cycle;Signal;HPM_P1;HPM_P2
2023/12/07 00:00:17;;;;;;;1.00;1.00;;;;;;;-0.06;96.11;98865.50;5012674;28;20032;-79
2023/12/07 00:02:43;;;;;;;1.10;1.10;;;;;;;-0.04;95.88;98874.41;5010410;28;20080;-79
2023/12/07 00:05:08;;;;;;;1.00;1.00;;;;;;;0.00;96.31;98870.31;5014077;28;20060;-78
2023/12/07 00:07:33;;;;;;;1.10;1.10;;;;;;;0.06;96.08;98878.59;5012189;28;20046;-79
2023/12/07 00:09:59;;;;;;;1.10;1.10;;;;;;;0.05;95.76;98876.78;5011964;28;20477;-78
2023/12/07 00:12:24;;;;;;;1.10;1.10;;;;;;;0.01;95.73;98874.75;5010236;28;20033;-78
2023/12/07 00:14:50;;;;;;;1.08;1.08;;;;;;;-0.01;95.95;98878.94;5010681;28;20065;-80
2023/12/07 00:17:15;;;;;;;1.10;1.10;;;;;;;-0.02;96.21;98882.38;5012582;28;20042;-79
2023/12/07 00:19:40;;;;;;;1.00;1.00;;;;;;;0.11;95.79;98884.19;5013660;28;20077;-79
2023/12/07 00:22:06;;;;;;;1.00;1.00;;;;;;;0.08;96.14;98887.47;5011522;28;20038;-79
2023/12/07 00:24:31;;;;;;;1.10;1.10;;;;;;;0.02;96.07;98873.94;5017092;28;20128;-79
2023/12/07 00:26:57;;;;;;;1.00;1.00;;;;;;;-0.01;95.74;98871.09;5012181;28;20136;-80
2023/12/07 00:29:22;;;;;;;1.00;1.00;;;;;;;-0.08;95.72;98876.69;5011638;28;20049;-79
2023/12/07 00:31:51;;;;;;;1.10;1.10;;;;;;;-0.04;96.01;98878.75;5009239;28;20038;-79
2023/12/07 00:34:17;;;;;;;1.00;1.00;;;;;;;0.00;96.08;98880.81;5008814;28;20456;-79
2023/12/07 00:36:42;;;;;;;1.00;1.00;;;;;;;-0.02;95.66;98885.91;5011303;28;20609;-79
2023/12/07 00:39:08;;;;;;;1.00;1.00;;;;;;;0.09;95.90;98885.78;5010314;28;20473;-78
2023/12/07 00:41:34;;;;;;;1.10;1.10;;;;;;;0.10;95.83;98899.03;5012091;28;20041;-78
2023/12/07 00:43:59;;;;;;;1.10;1.10;;;;;;;0.13;95.85;98899.22;5016700;28;20041;-79
2023/12/07 00:46:25;;;;;;;1.10;1.10;;;;;;;0.09;95.68;98898.88;5010008;28;20117;-79
2023/12/07 00:48:50;;;;;;;1.10;1.10;;;;;;;0.12;95.52;98896.50;5017982;28;20048;-79
2023/12/07 00:51:19;;;;;;;1.10;1.10;;;;;;;0.19;95.45;98906.63;5008941;28;20514;-78
2023/12/07 00:53:44;;;;;;;1.10;1.10;;;;;;;0.24;95.52;98911.41;5008835;28;20042;-79
2023/12/07 00:56:09;;;;;;;1.05;1.05;;;;;;;0.19;95.32;98912.81;5009620;28;20053;-79
2023/12/07 00:58:36;;;;;;;1.10;1.10;;;;;;;0.16;95.69;98906.41;5011992;28;20098;-79
2023/12/07 01:01:01;;;;;;;1.10;1.10;;;;;;;0.11;95.69;98911.31;5010317;28;20575;-79
2023/12/07 01:03:27;;;;;;;1.02;1.02;;;;;;;0.29;95.88;98908.19;5013672;28;20030;-79
2023/12/07 01:05:52;;;;;;;1.10;1.10;;;;;;;0.25;95.63;98910.59;5012149;28;20045;-79
2023/12/07 01:08:18;;;;;;;1.10;1.10;;;;;;;0.15;95.61;98912.47;5016763;28;20038;-79
2023/12/07 01:10:43;;;;;;;1.10;1.10;;;;;;;0.10;95.44;98916.47;5010526;28;20120;-79
2023/12/07 01:13:08;;;;;;;1.10;1.10;;;;;;;0.17;95.65;98916.09;5009851;28;20034;-79
2023/12/07 01:15:34;;;;;;;1.00;1.00;;;;;;;0.16;95.55;98923.06;5014579;28;20037;-79
2023/12/07 01:17:59;;;;;;;1.00;1.00;;;;;;;0.37;95.40;98921.06;5011991;28;20559;-79
2023/12/07 01:20:27;;;;;;;1.10;1.10;;;;;;;0.25;95.37;98923.72;5011168;28;20044;-79
2023/12/07 01:22:53;;;;;;;1.10;1.10;;;;;;;0.23;95.47;98930.56;5010654;28;20060;-79
2023/12/07 01:25:21;;;;;;;1.00;1.00;;;;;;;0.25;95.23;98939.47;5009308;28;20056;-79
2023/12/07 01:27:48;;;;;;;1.10;1.10;;;;;;;0.35;95.29;98932.25;5012602;28;20040;-79
2023/12/07 01:30:13;;;;;;;1.10;1.10;;;;;;;0.31;95.25;98927.59;5015935;28;20052;-79
2023/12/07 01:32:39;;;;;;;1.10;1.10;;;;;;;0.21;95.09;98950.53;5010814;28;20049;-80
2023/12/07 01:35:05;;;;;;;1.02;1.02;;;;;;;0.17;95.30;98943.25;5011250;28;20258;-79
2023/12/07 01:37:30;;;;;;;1.00;1.00;;;;;;;0.27;95.35;98942.19;5011411;28;20038;-79
2023/12/07 01:39:56;;;;;;;1.10;1.10;;;;;;;0.30;95.56;98937.19;5009343;28;20399;-78
2023/12/07 01:42:21;;;;;;;1.05;1.05;;;;;;;0.27;95.42;98938.66;5010457;28;20410;-79
2023/12/07 01:44:47;;;;;;;1.10;1.10;;;;;;;0.41;95.32;98936.22;5014018;28;20045;-79
2023/12/07 01:47:13;;;;;;;1.00;1.00;;;;;;;0.36;94.85;98941.94;5011671;28;20052;-79
2023/12/07 01:49:41;;;;;;;1.08;1.08;;;;;;;0.39;95.21;98931.69;5011155;28;20045;-79
2023/12/07 01:52:07;;;;;;;1.00;1.00;;;;;;;0.33;95.19;98936.47;5012072;28;20100;-79
2023/12/07 01:54:33;;;;;;;1.10;1.10;;;;;;;0.30;95.44;98950.31;5009483;28;20044;-79
2023/12/07 01:56:58;;;;;;;1.00;1.00;;;;;;;0.52;95.26;98940.53;5009943;28;20847;-78
2023/12/07 01:59:24;;;;;;;0.90;0.90;;;;;;;0.36;94.88;98937.63;5009965;28;20133;-81
2023/12/07 02:01:50;;;;;;;1.02;1.02;;;;;;;0.42;94.71;98938.03;5009845;28;20048;-78
2023/12/07 02:04:16;;;;;;;1.10;1.10;;;;;;;0.28;94.99;98935.22;5008004;28;20125;-80
2023/12/07 02:06:42;;;;;;;1.10;1.10;;;;;;;0.22;95.25;98947.09;5015337;28;20044;-78
2023/12/07 02:09:08;;;;;;;1.00;1.00;;;;;;;0.31;95.34;98944.25;5011170;28;20042;-78
2023/12/07 02:11:34;;;;;;;1.20;1.20;;;;;;;0.30;95.36;98942.44;4997860;28;20753;-80
2023/12/07 02:14:00;;;;;;;1.00;1.00;;;;;;;0.23;95.04;98932.28;5017331;28;20570;-78
2023/12/07 02:16:39;;;;;;;1.00;1.00;;;;;;;0.30;95.13;98947.69;5013007;28;20052;-80
2023/12/07 02:19:48;;;;;;;1.05;1.05;;;;;;;0.26;95.46;98945.63;5015270;28;20045;-78
2023/12/07 02:22:21;;;;;;;1.00;1.00;;;;;;;0.34;95.43;98940.94;5013161;28;20045;-78
2023/12/07 02:25:14;;;;;;;1.10;1.10;;;;;;;0.38;95.21;98950.84;5012000;28;20065;-79
2023/12/07 02:27:42;;;;;;;1.10;1.10;;;;;;;0.30;95.14;98945.06;5009637;28;20077;-79
2023/12/07 02:30:09;;;;;;;1.10;1.10;;;;;;;0.40;95.00;98952.78;5013522;28;20041;-78
2023/12/07 02:32:36;;;;;;;1.10;1.10;;;;;;;0.23;95.39;98950.63;5011677;28;20055;-79
2023/12/07 02:35:02;;;;;;;;;;;;;;;0.36;95.00;98941.94;5020024;28;20041;-78
2023/12/07 02:37:33;;;;;;;1.10;1.10;;;;;;;0.29;94.97;98948.47;5012295;28;19917;-79
2023/12/07 02:39:59;;;;;;;1.02;1.02;;;;;;;0.21;95.23;98954.88;5013289;28;20045;-79
2023/12/07 02:42:26;;;;;;;1.10;1.10;;;;;;;0.10;95.09;98951.47;5013044;28;20049;-80
2023/12/07 02:44:53;;;;;;;1.10;1.10;;;;;;;0.00;95.07;98951.63;5013514;28;20045;-78
2023/12/07 02:47:18;;;;;;;1.10;1.10;;;;;;;-0.04;95.49;98952.19;5012759;28;20036;-78
2023/12/07 02:49:44;;;;;;;1.10;1.10;;;;;;;0.08;95.48;98947.81;5015979;28;20034;-79
2023/12/07 02:52:10;;;;;;;1.08;1.08;;;;;;;0.12;95.24;98947.25;5015540;28;20048;-79
2023/12/07 02:54:35;;;;;;;1.00;1.00;;;;;;;0.09;95.61;98948.72;5013814;28;20109;-79
2023/12/07 02:57:01;;;;;;;0.93;0.93;;;;;;;0.20;95.51;98950.44;5014840;28;20466;-80
2023/12/07 02:59:26;;;;;;;1.10;1.10;;;;;;;0.15;95.70;98942.22;5011341;28;20148;-80
2023/12/07 03:01:51;;;;;;;1.05;1.05;;;;;;;0.13;95.31;98943.81;5014455;28;20116;-80
2023/12/07 03:04:17;;;;;;;1.10;1.10;;;;;;;0.08;95.30;98939.94;5012029;28;20117;-78
2023/12/07 03:06:42;;;;;;;1.10;1.10;;;;;;;0.15;95.25;98949.19;5016040;28;20113;-78
2023/12/07 03:09:08;;;;;;;1.05;1.05;;;;;;;0.02;95.51;98944.75;5015545;28;20048;-79
2023/12/07 03:11:33;;;;;;;1.05;1.05;;;;;;;-0.04;95.27;98954.81;5013887;28;20052;-79
2023/12/07 03:13:59;;;;;;;1.10;1.10;;;;;;;0.01;95.32;98952.53;5013952;28;20117;-79
2023/12/07 03:16:24;;;;;;;0.90;0.90;;;;;;;0.01;95.74;98963.00;5014539;28;20038;-78
2023/12/07 03:18:50;;;;;;;1.10;1.10;;;;;;;0.32;95.07;98963.53;5013055;28;20456;-79
2023/12/07 03:21:15;;;;;;;1.15;1.15;;;;;;;0.28;95.13;98959.75;5014481;28;20069;-78
2023/12/07 03:23:40;;;;;;;1.10;1.10;;;;;;;0.08;95.01;98953.06;5013753;28;20038;-78
2023/12/07 03:26:06;;;;;;;1.00;1.00;;;;;;;0.06;94.95;98957.28;5011118;28;20767;-78
2023/12/07 03:28:31;;;;;;;1.10;1.10;;;;;;;-0.01;95.37;98960.25;5014210;28;22039;-79
2023/12/07 03:30:57;;;;;;;1.10;1.10;;;;;;;-0.25;95.30;98961.97;5011532;28;20128;-79
2023/12/07 03:33:22;;;;;;;1.00;1.00;;;;;;;-0.33;96.58;98964.03;5012901;28;20607;-79
2023/12/07 03:35:48;;;;;;;1.05;1.05;;;;;;;-0.55;96.23;98964.13;5013354;28;20056;-79
2023/12/07 03:38:14;;;;;;;1.10;1.10;;;;;;;-0.71;95.83;98962.84;5011214;28;20778;-79
2023/12/07 03:40:39;;;;;;;0.93;0.93;;;;;;;-0.91;96.02;98959.63;5013502;28;20068;-79
2023/12/07 03:43:05;;;;;;;1.10;1.10;;;;;;;-0.96;96.26;98958.31;5012527;28;20120;-79
2023/12/07 03:45:30;;;;;;;1.00;1.00;;;;;;;-1.11;96.02;98951.91;5012532;28;20404;-79
2023/12/07 03:47:56;;;;;;;1.00;1.00;;;;;;;-1.26;95.95;98950.72;5011620;28;20424;-79
2023/12/07 03:50:23;;;;;;;1.10;1.10;;;;;;;-1.53;96.44;98963.47;5010899;28;20476;-79
2023/12/07 03:52:49;;;;;;;1.10;1.10;;;;;;;-1.59;96.73;98963.88;5009826;28;20033;-80
2023/12/07 03:55:14;;;;;;;1.00;1.00;;;;;;;-1.63;96.37;98953.97;5009762;28;20370;-80
2023/12/07 03:57:39;;;;;;;1.00;1.00;;;;;;;-1.74;96.12;98953.88;5010081;28;20033;-79
2023/12/07 04:00:10;;;;;;;1.00;1.00;;;;;;;-1.45;96.31;98967.56;5016502;28;20038;-79
2023/12/07 04:02:38;;;;;;;1.00;1.00;;;;;;;-1.49;96.42;98964.59;5028407;28;20103;-79
2023/12/07 04:05:04;;;;;;;1.10;1.10;;;;;;;-1.70;96.69;98969.94;5011588;28;20045;-80
2023/12/07 04:07:30;;;;;;;0.93;0.93;;;;;;;-1.72;97.04;98971.53;5010877;28;20104;-80
2023/12/07 04:09:58;;;;;;;1.10;1.10;;;;;;;-1.84;96.98;98978.38;5008737;28;20415;-78
2023/12/07 04:12:23;;;;;;;1.00;1.00;;;;;;;-1.89;97.31;98980.63;5017462;28;20772;-79
2023/12/07 04:14:51;;;;;;;1.00;1.00;;;;;;;-2.00;97.20;98980.56;5010598;28;20120;-82
2023/12/07 04:17:17;;;;;;;1.10;1.10;;;;;;;-1.83;97.39;98988.97;5009232;28;20034;-78
2023/12/07 04:19:42;;;;;;;1.10;1.10;;;;;;;-1.84;97.18;98988.84;5013024;28;20037;-79
2023/12/07 04:22:08;;;;;;;1.10;1.10;;;;;;;-1.99;96.98;98990.22;5012399;28;20029;-79
2023/12/07 04:24:33;;;;;;;1.10;1.10;;;;;;;-1.99;97.29;98990.22;5006545;28;20590;-79
2023/12/07 04:26:59;;;;;;;1.10;1.10;;;;;;;-2.18;96.78;98983.47;5012152;28;20041;-79
2023/12/07 04:29:24;;;;;;;1.10;1.10;;;;;;;-2.09;97.20;98988.56;5011727;28;20462;-79
2023/12/07 04:31:50;;;;;;;1.10;1.10;;;;;;;-2.29;97.02;98983.41;5012101;28;20511;-79
2023/12/07 04:34:15;;;;;;;1.05;1.05;;;;;;;-2.30;97.25;98989.38;5011703;28;20038;-79
2023/12/07 04:36:41;;;;;;;1.00;1.00;;;;;;;-2.17;97.11;98985.28;5008175;28;20041;-80
2023/12/07 04:39:06;;;;;;;1.00;1.00;;;;;;;-2.28;97.30;98991.34;5010742;28;20034;-78
2023/12/07 04:41:31;;;;;;;1.20;1.20;;;;;;;-2.21;97.97;98990.16;5015057;28;20044;-79
2023/12/07 04:43:57;;;;;;;1.10;1.10;;;;;;;-2.40;97.81;98995.53;5001388;28;20440;-78
2023/12/07 04:46:22;;;;;;;1.10;1.10;;;;;;;-2.82;98.04;98996.41;5010486;28;20046;-79
2023/12/07 04:48:48;;;;;;;1.02;1.02;;;;;;;-2.78;97.82;98995.84;5011430;28;20041;-79
2023/12/07 04:51:13;;;;;;;1.08;1.08;;;;;;;-2.91;98.23;98993.00;5009085;28;20091;-80
2023/12/07 04:53:39;;;;;;;1.10;1.10;;;;;;;-2.67;98.72;99000.31;5008577;28;20030;-80
2023/12/07 04:56:05;;;;;;;1.17;1.17;;;;;;;-2.89;98.82;98997.56;5011882;28;20104;-79
2023/12/07 04:58:30;;;;;;;1.10;1.10;;;;;;;-3.09;98.51;99000.16;5009474;28;20038;-79
2023/12/07 05:00:55;;;;;;;1.10;1.10;;;;;;;-2.92;98.76;98986.88;5011385;28;20553;-79
2023/12/07 05:03:22;;;;;;;1.10;1.10;;;;;;;-2.75;98.86;98993.50;5015189;28;20147;-79
2023/12/07 05:05:49;;;;;;;1.20;1.20;;;;;;;-2.51;98.78;98992.03;5011472;28;20041;-79
2023/12/07 05:08:15;;;;;;;1.10;1.10;;;;;;;-2.53;98.83;98995.34;5007120;28;20038;-80
2023/12/07 05:10:40;;;;;;;1.20;1.20;;;;;;;-2.41;98.72;98997.25;5009747;28;20084;-78
2023/12/07 05:13:06;;;;;;;1.10;1.10;;;;;;;-2.37;98.59;98991.50;5012126;28;20092;-79
2023/12/07 05:15:31;;;;;;;1.10;1.10;;;;;;;-2.76;98.78;98996.00;5010568;28;20041;-79
2023/12/07 05:17:57;;;;;;;1.20;1.20;;;;;;;-2.76;98.55;98996.00;5011590;28;20407;-79
2023/12/07 05:20:24;;;;;;;1.10;1.10;;;;;;;-2.61;98.79;98999.91;5010925;28;20083;-79
2023/12/07 05:22:49;;;;;;;1.20;1.20;;;;;;;-2.69;98.41;98996.63;4999701;28;20054;-82
2023/12/07 05:25:15;;;;;;;1.20;1.20;;;;;;;-2.77;98.47;98997.69;5010483;28;20040;-81
2023/12/07 05:27:41;;;;;;;1.20;1.20;;;;;;;-2.88;98.60;99001.06;5013127;28;20112;-82
2023/12/07 05:30:07;;;;;;;1.20;1.20;;;;;;;-2.78;98.49;99008.91;5007089;28;20104;-81
2023/12/07 05:32:32;;;;;;;1.13;1.13;;;;;;;-2.90;98.10;99010.50;5018008;28;20063;-82
2023/12/07 05:34:58;;;;;;;1.20;1.20;;;;;;;-3.07;98.20;99008.13;4999471;28;20407;-82
2023/12/07 05:37:23;;;;;;;1.10;1.10;;;;;;;-2.91;98.11;99004.34;5013474;28;20034;-81
2023/12/07 05:39:50;;;;;;;1.10;1.10;;;;;;;-2.93;98.14;99015.44;5012236;28;20042;-81
2023/12/07 05:42:15;;;;;;;1.20;1.20;;;;;;;-3.02;98.49;99012.94;5014860;28;20041;-82
2023/12/07 05:44:41;;;;;;;1.00;1.00;;;;;;;-3.21;98.18;99017.34;5015650;28;20030;-81
2023/12/07 05:47:07;;;;;;;1.10;1.10;;;;;;;-3.08;98.41;99027.16;5018049;28;20227;-83
2023/12/07 05:49:33;;;;;;;1.10;1.10;;;;;;;-2.74;98.41;99025.75;5021178;28;20046;-81
2023/12/07 05:51:59;;;;;;;1.20;1.20;;;;;;;-2.29;98.66;99023.50;5017804;28;20042;-80
2023/12/07 05:54:24;;;;;;;1.10;1.10;;;;;;;-2.14;98.27;99016.94;5015728;28;20041;-84
2023/12/07 05:56:50;;;;;;;1.10;1.10;;;;;;;-2.09;98.24;99020.84;5013013;28;20041;-82
2023/12/07 05:59:15;;;;;;;1.10;1.10;;;;;;;-1.95;98.18;99016.75;5013856;28;20030;-82
2023/12/07 06:01:41;;;;;;;1.10;1.10;;;;;;;-1.89;97.88;99009.38;5010440;28;20044;-81
2023/12/07 06:04:11;;;;;;;1.20;1.20;;;;;;;-1.85;97.81;99013.19;5012484;28;20644;-81
2023/12/07 06:06:39;;;;;;;1.13;1.13;;;;;;;-1.78;97.77;99014.56;5015279;28;20135;-82
2023/12/07 06:09:05;;;;;;;1.10;1.10;;;;;;;-1.67;97.51;99008.53;5021262;28;20045;-82
2023/12/07 06:11:32;;;;;;;1.20;1.20;;;;;;;-1.65;97.11;99004.31;5013269;28;20037;-83
2023/12/07 06:13:59;;;;;;;1.10;1.10;;;;;;;-1.52;96.93;99011.47;5020567;28;20045;-83
2023/12/07 06:16:25;;;;;;;1.10;1.10;;;;;;;-1.58;97.32;99011.91;5004251;28;20760;-81
2023/12/07 06:18:51;;;;;;;1.10;1.10;;;;;;;-1.48;97.04;99011.84;5012797;28;20034;-82
2023/12/07 06:21:17;;;;;;;1.10;1.10;;;;;;;-1.47;96.67;98999.66;5014673;28;20123;-81
2023/12/07 06:23:42;;;;;;;1.00;1.00;;;;;;;-1.28;96.60;99009.88;5014601;28;21063;-80
2023/12/07 06:26:08;;;;;;;1.20;1.20;;;;;;;-1.30;95.94;99013.28;5013883;28;20037;-80
2023/12/07 06:28:33;;;;;;;1.10;1.10;;;;;;;-1.31;95.58;99008.84;5021129;28;20127;-81
2023/12/07 06:31:05;;;;;;;1.00;1.00;;;;;;;-1.36;95.68;99004.03;5013930;28;20046;-81
2023/12/07 06:33:31;;;;;;;1.20;1.20;;;;;;;-1.32;95.58;99004.41;5015588;28;20038;-80
2023/12/07 06:35:56;;;;;;;1.02;1.02;;;;;;;-1.37;95.78;99012.69;5014617;28;20042;-80
2023/12/07 06:38:22;;;;;;;1.05;1.05;;;;;;;-1.37;95.56;99007.44;5014848;28;20045;-81
2023/12/07 06:40:47;;;;;;;1.20;1.20;;;;;;;-1.41;95.20;99008.91;5015512;28;20033;-80
2023/12/07 06:43:14;;;;;;;0.98;0.98;;;;;;;-1.27;95.04;99009.09;5014353;28;20045;-82
2023/12/07 06:45:40;;;;;;;1.20;1.20;;;;;;;-1.30;95.27;99010.66;5009948;28;20054;-81
2023/12/07 06:48:05;;;;;;;1.10;1.10;;;;;;;-1.41;95.04;99005.38;5011279;28;20450;-81
2023/12/07 06:50:30;;;;;;;1.05;1.05;;;;;;;-1.43;95.07;98999.13;5011416;28;20042;-83
2023/12/07 06:52:56;;;;;;;1.10;1.10;;;;;;;-1.50;94.79;99007.25;5014814;28;20045;-83
2023/12/07 06:55:22;;;;;;;1.10;1.10;;;;;;;-1.69;94.53;99004.84;5013773;28;20034;-81
2023/12/07 06:57:48;;;;;;;1.10;1.10;;;;;;;-1.80;94.70;99011.84;5016334;28;20041;-81
2023/12/07 07:00:14;;;;;;;1.10;1.10;;;;;;;-1.91;94.71;99008.38;5013764;28;20046;-83
2023/12/07 07:02:39;;;;;;;1.10;1.10;;;;;;;-1.94;94.43;99013.31;5007881;28;20076;-80
2023/12/07 07:05:06;;;;;;;1.00;1.00;;;;;;;-1.87;94.74;99018.28;5014574;28;20168;-80
2023/12/07 07:07:31;;;;;;;1.10;1.10;;;;;;;-1.83;94.38;99019.44;5013099;28;20164;-80
2023/12/07 07:10:00;;;;;;;1.10;1.10;;;;;;;-1.95;94.74;99015.84;5014248;28;20691;-80
2023/12/07 07:12:25;;;;;;;1.20;1.20;;;;;;;-1.85;94.53;99018.41;5014773;28;20037;-80
2023/12/07 07:14:52;;;;;;;1.17;1.17;;;;;;;-1.91;94.49;99024.06;5014395;28;20599;-80
2023/12/07 07:17:18;;;;;;;1.13;1.13;;;;;;;-1.88;94.21;99019.06;5016974;28;20037;-80
2023/12/07 07:19:43;;;;;;;1.20;1.20;;;;;;;-2.06;94.50;99025.38;5014677;28;20052;-80
2023/12/07 07:22:11;;;;;;;1.10;1.10;;;;;;;-2.26;94.49;99025.44;5014616;28;20036;-81
2023/12/07 07:24:36;;;;;;;1.10;1.10;;;;;;;-2.37;94.73;99024.56;5021346;28;20466;-80
2023/12/07 07:27:02;;;;;;;1.10;1.10;;;;;;;-2.21;95.83;99027.63;5015532;28;20529;-80
2023/12/07 07:29:28;;;;;;;1.10;1.10;;;;;;;-2.41;95.78;99030.28;5014644;28;20466;-81
2023/12/07 07:31:53;;;;;;;1.10;1.10;;;;;;;-2.30;96.27;99028.56;5012753;28;20958;-80
2023/12/07 07:34:19;;;;;;;1.00;1.00;;;;;;;-2.34;96.33;99033.56;5015877;28;20033;-80
2023/12/07 07:36:44;;;;;;;1.10;1.10;;;;;;;-2.27;96.23;99031.47;5014255;28;20052;-81
2023/12/07 07:39:11;;;;;;;1.15;1.15;;;;;;;-2.36;96.04;99027.28;5014750;28;20048;-80
2023/12/07 07:41:36;;;;;;;1.17;1.17;;;;;;;-2.32;96.19;99033.69;5021350;28;20403;-81
2023/12/07 07:44:02;;;;;;;1.15;1.15;;;;;;;-2.29;96.12;99026.13;5011392;28;20768;-81
2023/12/07 07:46:28;;;;;;;1.20;1.20;;;;;;;-2.21;96.06;99025.03;5017546;28;20080;-80
2023/12/07 07:48:53;;;;;;;1.10;1.10;;;;;;;-1.97;95.40;99028.75;5020741;28;20369;-80
2023/12/07 07:51:19;;;;;;;1.15;1.15;;;;;;;-1.78;95.45;99022.41;5015141;28;20066;-80
2023/12/07 07:53:44;;;;;;;1.17;1.17;;;;;;;-1.72;94.73;99023.84;5015165;28;20133;-82
2023/12/07 07:56:09;;;;;;;1.20;1.20;;;;;;;-1.59;95.00;99021.41;5016515;28;20482;-80
2023/12/07 07:58:35;;;;;;;1.10;1.10;;;;;;;-1.48;94.50;99018.78;5017416;28;20116;-80
2023/12/07 08:01:01;;;;;;;1.10;1.10;;;;;;;-1.35;94.23;99017.22;5017426;28;20047;-80
2023/12/07 08:03:26;;;;;;;1.10;1.10;;;;;;;-1.18;93.37;99028.16;5014195;28;20037;-81
2023/12/07 08:05:51;;;;;;;1.10;1.10;;;;;;;-0.94;93.13;99032.69;5015410;28;20037;-81
2023/12/07 08:08:22;;;;;;;1.10;1.10;;;;;;;-0.24;91.62;99031.03;5016304;28;20136;-81
2023/12/07 08:10:47;;;;;;;1.13;1.13;;;;;;;0.20;90.45;99029.16;5016355;28;20048;-81
2023/12/07 08:13:13;;;;;;;1.10;1.10;;;;;;;0.36;89.29;99028.56;5014775;28;20423;-80
2023/12/07 08:15:38;;;;;;;1.10;1.10;;;;;;;0.44;88.42;99023.06;5015122;28;20091;-81
2023/12/07 08:18:04;;;;;;;1.10;1.10;;;;;;;0.27;88.26;99028.78;5014778;28;20171;-80
2023/12/07 08:20:30;;;;;;;1.10;1.10;;;;;;;0.28;87.78;99032.31;5011028;28;20038;-78
2023/12/07 08:22:56;;;;;;;1.10;1.10;;;;;;;0.29;88.10;99016.72;5015968;28;20507;-79
2023/12/07 08:25:21;;;;;;;1.08;1.08;;;;;;;0.61;87.87;99032.16;5014692;28;20049;-79
2023/12/07 08:27:47;;;;;;;1.10;1.10;;;;;;;1.07;87.41;99024.94;5011120;28;20048;-79
2023/12/07 08:30:13;;;;;;;1.02;1.02;;;;;;;1.06;86.60;99023.13;5012767;28;20490;-79
2023/12/07 08:32:39;;;;;;;1.10;1.10;;;;;;;0.46;86.57;99025.81;5010273;28;20458;-79
2023/12/07 08:35:05;;;;;;;1.10;1.10;;;;;;;0.51;87.16;99027.94;5013252;28;20052;-79
2023/12/07 08:37:36;;;;;;;1.10;1.10;;;;;;;0.40;87.08;99023.66;5013172;28;20046;-80
2023/12/07 08:40:02;;;;;;;1.10;1.10;;;;;;;0.39;87.31;99028.78;5012554;28;20038;-79
2023/12/07 08:42:27;;;;;;;1.05;1.05;;;;;;;1.21;86.93;99028.56;5011021;28;20057;-79
2023/12/07 08:44:53;;;;;;;1.10;1.10;;;;;;;1.92;85.18;99021.16;5015259;28;20096;-80
2023/12/07 08:47:19;;;;;;;1.10;1.10;;;;;;;1.97;82.55;99022.38;5011579;28;20038;-78
2023/12/07 08:49:44;;;;;;;1.00;1.00;;;;;;;2.40;81.61;99022.59;5013688;28;20477;-79
2023/12/07 08:52:10;;;;;;;1.00;1.00;;;;;;;2.58;80.43;99023.78;5010991;28;20169;-80
2023/12/07 08:54:36;;;;;;;1.00;1.00;;;;;;;2.78;79.21;99015.44;5012226;28;20061;-80
2023/12/07 08:57:03;;;;;;;1.00;1.00;;;;;;;3.30;79.59;99015.16;5012940;28;20167;-81
2023/12/07 08:59:30;;;;;;;1.00;1.00;;;;;;;3.30;77.78;99017.78;5014657;28;20060;-80
2023/12/07 09:01:58;;;;;;;0.95;0.95;;;;;;;3.30;78.45;99008.16;5011794;28;20046;-80
2023/12/07 09:04:23;;;;;;;0.85;0.85;;;;;;;3.85;81.65;99003.59;5013200;28;20030;-80
2023/12/07 09:06:48;;;;;;;0.88;0.88;;;;;;;4.73;77.90;98998.09;5012950;28;20796;-80
2023/12/07 09:09:14;;;;;;;0.88;0.88;;;;;;;4.46;77.75;98993.06;5012556;28;20045;-79
2023/12/07 09:11:39;;;;;;;0.90;0.90;;;;;;;4.05;75.14;98993.31;5010068;28;20038;-78
2023/12/07 09:14:05;;;;;;;0.80;0.80;;;;;;;5.22;78.88;98975.28;5009982;28;20786;-78
2023/12/07 09:16:30;;;;;;;0.80;0.80;;;;;;;6.43;77.31;98973.59;5010420;28;20048;-79
2023/12/07 09:18:56;;;;;;;0.70;0.70;;;;;;;6.95;75.41;98968.16;5010092;28;20044;-78
2023/12/07 09:21:21;;;;;;;0.70;0.70;;;;;;;7.26;73.06;98972.22;5009964;28;20073;-78
2023/12/07 09:23:47;;;;;;;0.65;0.65;;;;;;;7.57;73.64;98958.56;5010238;28;20041;-79
2023/12/07 09:26:12;;;;;;;0.70;0.70;;;;;;;7.53;71.14;98960.19;4996791;28;20054;-78
2023/12/07 09:28:39;;;;;;;0.60;0.60;;;;;;;6.01;67.68;98962.66;5008323;28;20026;-78
2023/12/07 09:31:06;;;;;;;0.70;0.70;;;;;;;5.91;70.14;98963.00;5014995;28;20050;-78
2023/12/07 09:33:31;;;;;;;0.60;0.60;;;;;;;6.90;72.77;98959.06;5011375;28;20034;-77
2023/12/07 09:35:56;;;;;;;0.60;0.60;;;;;;;6.69;69.87;98956.28;5010563;28;20060;-77
2023/12/07 09:38:22;;;;;;;0.50;0.50;;;;;;;7.70;72.78;98953.88;5011908;28;20404;-77
2023/12/07 09:40:52;;;;;;;0.60;0.60;;;;;;;8.42;67.91;98934.78;5013226;28;20039;-77
2023/12/07 09:43:18;;;;;;;0.50;0.50;;;;;;;8.92;68.39;98927.94;5009998;28;20041;-77
2023/12/07 09:45:44;;;;;;;0.50;0.50;;;;;;;9.24;66.78;98923.81;5013461;28;20033;-80
2023/12/07 09:48:10;;;;;;;0.57;0.57;;;;;;;9.59;66.82;98924.22;5010539;28;20077;-79
2023/12/07 09:50:39;;;;;;;0.40;0.40;;;;;;;10.09;64.46;98914.41;5010309;28;20041;-78
2023/12/07 09:53:04;;;;;;;0.40;0.40;;;;;;;9.80;63.79;98924.97;5011420;28;20037;-79
2023/12/07 09:55:33;;;;;;;0.40;0.40;;;;;;;10.10;60.89;98919.78;5011181;28;20107;-79
2023/12/07 09:57:58;;;;;;;0.50;0.50;;;;;;;9.58;61.68;98927.69;5010655;28;20042;-78
2023/12/07 10:00:25;;;;;;;0.50;0.50;;;;;;;9.59;58.88;98918.88;5010715;28;20273;-79
2023/12/07 10:02:51;;;;;;;0.45;0.45;;;;;;;10.46;61.80;98921.91;5012785;28;20677;-78
2023/12/07 10:05:17;;;;;;;0.40;0.40;;;;;;;10.70;56.89;98924.47;5011514;28;20116;-79
2023/12/07 10:07:44;;;;;;;0.40;0.40;;;;;;;11.10;59.14;98923.00;5011362;28;20187;-78
2023/12/07 10:10:13;;;;;;;0.40;0.40;;;;;;;10.84;54.78;98912.44;5010405;28;20124;-79
2023/12/07 10:12:52;;;;;;;0.40;0.40;;;;;;;11.22;55.04;98900.25;5010458;28;20065;-79
2023/12/07 10:15:23;;;;;;;0.40;0.40;;;;;;;10.81;55.48;98903.44;5012740;28;20119;-79
2023/12/07 10:17:56;;;;;;;0.43;0.43;;;;;;;10.65;56.89;98900.28;5018812;28;20052;-79
2023/12/07 10:20:24;;;;;;;0.40;0.40;;;;;;;11.13;55.81;98885.72;5012369;28;20192;-80
2023/12/07 10:23:01;;;;;;;0.40;0.40;;;;;;;11.86;50.81;98885.13;5011857;28;20037;-80
2023/12/07 10:25:26;;;;;;;0.40;0.40;;;;;;;11.90;48.29;98886.13;5011315;28;20038;-80
2023/12/07 10:27:52;;;;;;;0.40;0.40;;;;;;;11.68;48.43;98873.91;5014567;28;20419;-78
2023/12/07 10:30:24;;;;;;;0.40;0.40;;;;;;;11.90;49.52;98879.00;5016336;28;20402;-79
2023/12/07 10:32:50;;;;;;;0.35;0.35;;;;;;;11.78;47.94;98876.84;5016461;28;20037;-80
2023/12/07 10:35:16;;;;;;;0.40;0.40;;;;;;;11.73;47.25;98866.91;5011671;28;20384;-79
2023/12/07 10:37:42;;;;;;;0.40;0.40;;;;;;;12.96;45.31;98865.47;5017807;28;20037;-79
2023/12/07 10:40:07;;;;;;;0.40;0.40;;;;;;;12.95;44.44;98861.91;5019507;28;20450;-80
2023/12/07 10:42:35;;;;;;;0.40;0.40;;;;;;;12.79;45.52;98858.00;5013516;28;20080;-80
2023/12/07 10:45:04;;;;;;;0.40;0.40;;;;;;;13.62;43.44;98854.38;5013447;28;20041;-81
2023/12/07 10:47:34;;;;;;;0.30;0.30;;;;;;;11.77;45.80;98864.38;5013193;28;20041;-80
2023/12/07 10:50:02;;;;;;;0.40;0.40;;;;;;;11.33;45.48;98854.25;5021163;28;20052;-80
2023/12/07 10:52:32;;;;;;;0.30;0.30;;;;;;;12.42;43.55;98840.19;5017083;28;20060;-79
2023/12/07 10:55:07;;;;;;;0.40;0.40;;;;;;;12.48;42.50;98837.63;5014338;28;20029;-79
2023/12/07 10:57:34;;;;;;;0.40;0.40;;;;;;;13.66;40.88;98833.88;5014279;28;20056;-80
2023/12/07 11:00:00;;;;;;;0.40;0.40;;;;;;;14.11;41.56;98840.03;5015451;28;20041;-80
2023/12/07 11:02:28;;;;;;;0.47;0.47;;;;;;;12.30;42.76;98834.53;5020957;28;20038;-80
2023/12/07 11:04:56;;;;;;;0.40;0.40;;;;;;;10.54;47.78;98845.69;5013373;28;20048;-80
2023/12/07 11:07:25;;;;;;;0.50;0.50;;;;;;;10.08;48.42;98845.94;5009584;28;20046;-80
2023/12/07 11:10:02;;;;;;;0.50;0.50;;;;;;;11.80;44.41;98836.81;5013938;28;20541;-80
2023/12/07 11:12:34;;;;;;;0.40;0.40;;;;;;;13.84;40.05;98832.41;5014157;28;20610;-80
2023/12/07 11:15:02;;;;;;;0.50;0.50;;;;;;;13.68;38.81;98829.44;5018721;28;20061;-79
2023/12/07 11:17:27;;;;;;;;;;;;;;;13.24;39.85;98826.81;5014939;28;20477;-80
2023/12/07 11:19:54;;;;;;;0.40;0.40;;;;;;;14.23;38.43;98827.69;5012499;28;19956;-80
2023/12/07 11:22:23;;;;;;;0.40;0.40;;;;;;;14.35;39.43;98811.78;5015351;28;20470;-80
2023/12/07 11:24:53;;;;;;;0.50;0.50;;;;;;;14.88;37.38;98806.31;5013580;28;20073;-80
2023/12/07 11:27:22;;;;;;;0.40;0.40;;;;;;;14.84;36.78;98791.03;5020432;28;20127;-79
2023/12/07 11:29:52;;;;;;;0.50;0.50;;;;;;;12.47;41.41;98793.03;5015406;28;20034;-80
2023/12/07 11:32:18;;;;;;;0.50;0.50;;;;;;;11.93;41.59;98798.88;5013085;28;20046;-81